Time;durP1;ratioP1;P1;durP2;ratioP2;P2;SDS_P1;SDS_P2;PMS_P1;PMS_P2;Temp;Humidity;BMP_temperature;BMP_pressure;BME280_temperature;BME280_humidity;BME280_pressure;Samples;Min_cycle;Max_cycle;Signal;HPM_P1;HPM_P2
2023/08/08 00:01:57;;;;;;;7.88;2.30;;;13.30;99.90;;;;;;5069551;28;20057;-73
2023/08/08 00:04:23;;;;;;;8.80;2.75;;;13.30;99.90;;;;;;5070012;28;20037;-68
2023/08/08 00:06:48;;;;;;;7.95;2.65;;;13.30;99.90;;;;;;5069467;28;20051;-73
2023/08/08 00:09:14;;;;;;;7.07;2.58;;;13.40;99.90;;;;;;5069697;28;20045;-69
2023/08/08 00:11:40;;;;;;;6.97;2.50;;;13.40;99.90;;;;;;5069314;28;20121;-68
2023/08/08 00:14:06;;;;;;;6.13;2.40;;;13.40;99.90;;;;;;5069552;28;20059;-70
2023/08/08 00:16:31;;;;;;;4.97;2.28;;;13.50;99.90;;;;;;5069272;28;20052;-71
2023/08/08 00:18:57;;;;;;;11.02;2.72;;;13.40;99.90;;;;;;5069857;28;20090;-73
2023/08/08 00:21:22;;;;;;;13.95;2.88;;;13.50;99.90;;;;;;5068342;28;20052;-68
2023/08/08 00:23:48;;;;;;;6.90;2.78;;;13.40;99.90;;;;;;5069443;28;20063;-69
2023/08/08 00:26:14;;;;;;;7.05;2.85;;;13.50;99.90;;;;;;5069315;28;20049;-68
2023/08/08 00:28:40;;;;;;;7.95;2.40;;;13.50;99.90;;;;;;5069350;28;20764;-75
2023/08/08 00:31:05;;;;;;;9.68;2.72;;;13.40;99.90;;;;;;5069419;28;20052;-72
2023/08/08 00:33:31;;;;;;;6.25;2.40;;;13.70;99.90;;;;;;5069180;28;20040;-70
2023/08/08 00:35:57;;;;;;;8.65;2.60;;;13.50;99.90;;;;;;5069545;28;20416;-68
2023/08/08 00:38:22;;;;;;;6.90;2.80;;;13.50;99.90;;;;;;5069453;28;20506;-69
2023/08/08 00:40:48;;;;;;;8.00;2.60;;;13.50;99.90;;;;;;5069887;28;20113;-74
2023/08/08 00:43:14;;;;;;;6.55;2.28;;;13.50;99.90;;;;;;5069441;28;20044;-74
2023/08/08 00:45:42;;;;;;;4.43;2.42;;;13.50;99.90;;;;;;5068131;28;20049;-72
2023/08/08 00:48:08;;;;;;;7.63;2.22;;;13.50;99.90;;;;;;5067810;28;20110;-75
2023/08/08 00:50:35;;;;;;;6.47;2.60;;;13.50;99.90;;;;;;5069275;28;20040;-68
2023/08/08 00:53:02;;;;;;;5.25;2.42;;;13.50;99.90;;;;;;5069499;28;20044;-68
2023/08/08 00:55:28;;;;;;;8.35;2.42;;;13.50;99.90;;;;;;5069056;28;20052;-73
2023/08/08 00:57:54;;;;;;;5.50;2.58;;;13.50;99.90;;;;;;5067574;28;20483;-70
2023/08/08 01:00:19;;;;;;;7.05;2.70;;;13.50;99.90;;;;;;5069255;28;20041;-70
2023/08/08 01:02:45;;;;;;;6.53;2.85;;;13.60;99.90;;;;;;5067871;28;20048;-68
2023/08/08 01:05:11;;;;;;;6.72;2.97;;;13.50;99.90;;;;;;5068793;28;20036;-67
2023/08/08 01:07:52;;;;;;;5.38;2.70;;;13.50;99.90;;;;;;5069255;28;20559;-74
2023/08/08 01:10:33;;;;;;;9.25;3.42;;;13.50;99.90;;;;;;5061049;28;20095;-68
2023/08/08 01:13:10;;;;;;;9.57;3.40;;;13.50;99.90;;;;;;5068915;28;20046;-75
2023/08/08 01:15:37;;;;;;;6.75;2.85;;;13.50;99.90;;;;;;5068620;28;20584;-70
2023/08/08 01:18:08;;;;;;;7.63;3.10;;;13.50;99.90;;;;;;5071806;28;20044;-68
2023/08/08 01:20:35;;;;;;;8.00;2.85;;;13.50;99.90;;;;;;5072911;28;20059;-68
2023/08/08 01:23:12;;;;;;;6.53;3.03;;;13.40;99.90;;;;;;5072865;28;20407;-73
2023/08/08 01:25:40;;;;;;;6.75;3.45;;;13.40;99.90;;;;;;5065349;28;20129;-67
2023/08/08 01:28:06;;;;;;;8.40;3.00;;;13.40;99.90;;;;;;5072551;28;20056;-73
2023/08/08 01:30:32;;;;;;;5.47;2.83;;;13.40;99.90;;;;;;5072216;28;20062;-71
2023/08/08 01:32:58;;;;;;;6.60;3.08;;;13.40;99.90;;;;;;5072866;28;20128;-74
2023/08/08 01:35:28;;;;;;;6.05;2.97;;;13.40;99.90;;;;;;5072428;28;20087;-70
2023/08/08 01:38:07;;;;;;;9.48;2.90;;;13.40;99.90;;;;;;5070938;28;20137;-74
2023/08/08 01:40:35;;;;;;;9.80;3.10;;;13.20;99.90;;;;;;5072365;28;20045;-75
2023/08/08 01:43:01;;;;;;;7.15;2.92;;;13.30;99.90;;;;;;5072755;28;20040;-71
2023/08/08 01:45:27;;;;;;;15.60;3.15;;;13.30;99.90;;;;;;5071727;28;20047;-69
2023/08/08 01:47:53;;;;;;;12.32;3.08;;;13.30;99.90;;;;;;5072457;28;20048;-74
2023/08/08 01:50:21;;;;;;;7.75;2.60;;;13.40;99.90;;;;;;5072384;28;20072;-69
2023/08/08 01:52:46;;;;;;;11.80;3.45;;;13.50;99.90;;;;;;5071975;28;20060;-69
2023/08/08 01:55:12;;;;;;;10.75;2.83;;;13.30;99.90;;;;;;5071874;28;20040;-74
2023/08/08 01:57:38;;;;;;;4.93;2.70;;;13.20;99.90;;;;;;5072140;28;20037;-75
2023/08/08 02:00:06;;;;;;;8.65;2.30;;;13.20;99.90;;;;;;5071783;28;20086;-68
2023/08/08 02:02:32;;;;;;;8.40;2.97;;;13.30;99.90;;;;;;5072016;28;20079;-73
2023/08/08 02:04:58;;;;;;;8.85;2.50;;;13.30;99.90;;;;;;5071768;28;20084;-69
2023/08/08 02:07:23;;;;;;;8.55;2.90;;;13.30;99.90;;;;;;5071970;28;20098;-71
2023/08/08 02:09:50;;;;;;;10.00;3.38;;;13.30;99.90;;;;;;5071780;28;20091;-70
2023/08/08 02:12:16;;;;;;;7.93;3.40;;;13.30;99.90;;;;;;5064931;28;20809;-68
2023/08/08 02:14:42;;;;;;;8.93;3.63;;;13.30;99.90;;;;;;5071659;28;20048;-71
2023/08/08 02:17:07;;;;;;;10.13;4.53;;;13.30;99.90;;;;;;5071477;28;20053;-70
2023/08/08 02:19:33;;;;;;;11.02;3.33;;;13.40;99.90;;;;;;5071950;28;20476;-68
2023/08/08 02:21:59;;;;;;;8.43;3.63;;;13.30;99.90;;;;;;5071475;28;20045;-71
2023/08/08 02:24:24;;;;;;;8.70;3.13;;;13.30;99.90;;;;;;5071108;28;20487;-72
2023/08/08 02:26:50;;;;;;;12.32;3.45;;;13.40;99.90;;;;;;5071665;28;20045;-69
2023/08/08 02:29:15;;;;;;;9.15;3.70;;;13.30;99.90;;;;;;5070186;28;20044;-70
2023/08/08 02:31:41;;;;;;;6.75;3.08;;;13.30;99.90;;;;;;5071320;28;20048;-66
2023/08/08 02:34:07;;;;;;;5.90;3.53;;;13.30;99.90;;;;;;5070506;28;20045;-69
2023/08/08 02:36:33;;;;;;;6.45;2.58;;;13.40;99.90;;;;;;5071364;28;20132;-68
2023/08/08 02:38:59;;;;;;;13.57;2.95;;;13.40;99.90;;;;;;5071363;28;20047;-69
2023/08/08 02:41:24;;;;;;;10.70;2.85;;;13.60;99.90;;;;;;5069637;28;20036;-74
2023/08/08 02:43:50;;;;;;;11.60;3.22;;;13.40;99.90;;;;;;5070943;28;20044;-69
2023/08/08 02:46:16;;;;;;;8.80;3.10;;;13.40;99.90;;;;;;5071535;28;20052;-69
2023/08/08 02:48:41;;;;;;;6.97;2.78;;;13.60;99.90;;;;;;5071117;28;20056;-69
2023/08/08 02:51:07;;;;;;;8.35;2.80;;;13.50;99.90;;;;;;5071401;28;20083;-67
2023/08/08 02:53:33;;;;;;;5.55;2.80;;;13.50;99.90;;;;;;5069686;28;20051;-70
2023/08/08 02:55:58;;;;;;;11.48;3.20;;;13.40;99.90;;;;;;5070886;28;20037;-69
2023/08/08 02:58:24;;;;;;;8.18;2.97;;;13.50;99.90;;;;;;5070973;28;20036;-71
2023/08/08 03:00:49;;;;;;;7.45;3.38;;;13.50;99.90;;;;;;5070477;28;20103;-73
2023/08/08 03:03:15;;;;;;;10.30;2.63;;;13.40;99.90;;;;;;5070922;28;20080;-70
2023/08/08 03:05:41;;;;;;;9.55;3.20;;;13.40;99.90;;;;;;5070608;28;20059;-74
2023/08/08 03:08:06;;;;;;;8.60;2.70;;;13.40;99.90;;;;;;5069667;28;20514;-71
2023/08/08 03:10:32;;;;;;;11.55;2.65;;;13.50;99.90;;;;;;5070999;28;20433;-68
2023/08/08 03:12:57;;;;;;;9.95;3.10;;;13.50;99.90;;;;;;5070016;28;20567;-72
2023/08/08 03:15:23;;;;;;;10.02;2.58;;;13.50;99.90;;;;;;5070290;28;20051;-68
2023/08/08 03:17:49;;;;;;;7.93;2.50;;;13.50;99.90;;;;;;5070294;28;20052;-70
2023/08/08 03:20:15;;;;;;;6.50;2.25;;;13.50;99.90;;;;;;5070665;28;20052;-72
2023/08/08 03:22:40;;;;;;;7.85;1.80;;;13.40;99.90;;;;;;5070225;28;20051;-73
2023/08/08 03:25:06;;;;;;;3.10;1.67;;;13.40;99.90;;;;;;5070208;28;20048;-70
2023/08/08 03:27:32;;;;;;;5.13;1.88;;;13.40;99.90;;;;;;5069924;28;20513;-69
2023/08/08 03:29:57;;;;;;;11.90;2.17;;;13.30;99.90;;;;;;5070432;28;20119;-69
2023/08/08 03:32:23;;;;;;;5.22;1.75;;;13.30;99.90;;;;;;5069348;28;20064;-72
2023/08/08 03:34:49;;;;;;;6.57;1.77;;;13.30;99.90;;;;;;5070211;28;20515;-70
2023/08/08 03:37:14;;;;;;;6.13;1.52;;;13.30;99.90;;;;;;5069787;28;20499;-70
2023/08/08 03:39:40;;;;;;;4.82;1.65;;;13.30;99.90;;;;;;5069889;28;20044;-72
2023/08/08 03:42:06;;;;;;;4.80;1.73;;;13.20;99.90;;;;;;5070033;28;20036;-70
2023/08/08 03:44:32;;;;;;;5.93;1.83;;;13.30;99.90;;;;;;5068876;28;20041;-67
2023/08/08 03:46:57;;;;;;;11.23;1.98;;;13.20;99.90;;;;;;5070125;28;20079;-68
2023/08/08 03:49:23;;;;;;;6.53;1.98;;;13.30;99.90;;;;;;5069811;28;20871;-69
2023/08/08 03:51:49;;;;;;;9.48;1.90;;;13.30;99.90;;;;;;5068572;28;20123;-70
2023/08/08 03:54:15;;;;;;;6.88;2.45;;;13.30;99.90;;;;;;5069858;28;20068;-72
2023/08/08 03:56:41;;;;;;;9.98;2.47;;;13.30;99.90;;;;;;5069632;28;20124;-69
2023/08/08 03:59:06;;;;;;;5.35;1.98;;;13.30;99.90;;;;;;5069799;28;20120;-71
2023/08/08 04:01:32;;;;;;;10.65;2.58;;;13.20;99.90;;;;;;5069865;28;20036;-69
2023/08/08 04:03:58;;;;;;;7.68;2.63;;;13.20;99.90;;;;;;5069257;28;20127;-70
2023/08/08 04:06:24;;;;;;;9.98;2.40;;;13.20;99.90;;;;;;5069597;28;20231;-70
2023/08/08 04:08:50;;;;;;;5.18;1.88;;;13.30;99.90;;;;;;5069735;28;20049;-69
2023/08/08 04:11:16;;;;;;;6.65;1.73;;;13.30;99.90;;;;;;5069850;28;20044;-72
2023/08/08 04:13:41;;;;;;;8.20;2.60;;;13.40;99.90;;;;;;5069388;28;20044;-68
2023/08/08 04:16:07;;;;;;;7.70;2.30;;;13.30;99.90;;;;;;5069978;28;20451;-69
2023/08/08 04:18:32;;;;;;;13.75;2.72;;;13.40;99.90;;;;;;5069399;28;20036;-69
2023/08/08 04:20:58;;;;;;;7.88;2.20;;;13.30;99.90;;;;;;5069740;28;20115;-69
2023/08/08 04:23:25;;;;;;;9.02;2.33;;;13.40;99.90;;;;;;5068487;28;20911;-72
2023/08/08 04:25:52;;;;;;;6.70;2.20;;;13.30;99.90;;;;;;5069793;28;20619;-68
2023/08/08 04:28:18;;;;;;;8.85;2.75;;;13.30;99.90;;;;;;5068682;28;20053;-73
2023/08/08 04:30:43;;;;;;;8.63;2.42;;;13.30;99.90;;;;;;5069313;28;20048;-71
2023/08/08 04:33:09;;;;;;;6.57;2.28;;;13.30;99.90;;;;;;5069368;28;20039;-70
2023/08/08 04:35:35;;;;;;;7.82;2.85;;;13.50;99.90;;;;;;5068981;28;20052;-68
2023/08/08 04:38:00;;;;;;;7.53;2.40;;;13.30;99.90;;;;;;5069795;28;20052;-69
2023/08/08 04:40:26;;;;;;;6.82;2.20;;;13.40;99.90;;;;;;5069557;28;20179;-70
2023/08/08 04:42:52;;;;;;;7.45;2.40;;;13.30;99.90;;;;;;5069572;28;20044;-72
2023/08/08 04:45:18;;;;;;;10.73;2.50;;;13.40;99.90;;;;;;5069389;28;20123;-72
2023/08/08 04:47:43;;;;;;;9.07;2.40;;;13.40;99.90;;;;;;5069335;28;20049;-73
2023/08/08 04:50:10;;;;;;;6.90;2.00;;;13.20;99.90;;;;;;5068739;28;20033;-69
2023/08/08 04:52:36;;;;;;;7.63;2.10;;;13.20;99.90;;;;;;5072060;28;20044;-70
2023/08/08 04:55:01;;;;;;;8.90;2.13;;;13.20;99.90;;;;;;5073840;28;20506;-71
2023/08/08 04:57:27;;;;;;;10.73;2.15;;;13.20;99.90;;;;;;5073511;28;20044;-70
2023/08/08 04:59:53;;;;;;;8.30;2.03;;;13.20;99.90;;;;;;5073252;28;20051;-68
2023/08/08 05:02:18;;;;;;;7.82;1.83;;;13.20;99.90;;;;;;5072997;28;20037;-67
2023/08/08 05:04:44;;;;;;;7.65;2.17;;;13.20;99.90;;;;;;5071633;28;20051;-70
2023/08/08 05:07:09;;;;;;;10.50;2.00;;;13.20;99.90;;;;;;5072986;28;20076;-73
2023/08/08 05:09:35;;;;;;;8.95;2.20;;;13.10;99.90;;;;;;5073417;28;20052;-70
2023/08/08 05:12:01;;;;;;;5.18;1.60;;;13.10;99.90;;;;;;5073037;28;20044;-72
2023/08/08 05:14:26;;;;;;;11.77;1.70;;;13.10;99.90;;;;;;5073025;28;20032;-69
2023/08/08 05:16:52;;;;;;;8.77;1.88;;;13.20;99.90;;;;;;5071561;28;20052;-70
2023/08/08 05:19:18;;;;;;;10.77;1.70;;;13.20;99.90;;;;;;5072844;28;20040;-72
2023/08/08 05:21:43;;;;;;;6.70;2.08;;;13.20;99.90;;;;;;5072694;28;20127;-69
2023/08/08 05:24:09;;;;;;;10.63;1.83;;;13.20;99.90;;;;;;5072520;28;20034;-72
2023/08/08 05:26:34;;;;;;;10.90;1.75;;;13.20;99.90;;;;;;5073027;28;20510;-70
2023/08/08 05:29:00;;;;;;;9.88;1.50;;;13.40;99.90;;;;;;5072705;28;20081;-74
2023/08/08 05:31:26;;;;;;;6.45;1.65;;;13.30;99.90;;;;;;5072214;28;20098;-73
2023/08/08 05:33:51;;;;;;;7.22;1.80;;;13.30;99.90;;;;;;5072196;28;20036;-68
2023/08/08 05:36:17;;;;;;;6.70;1.50;;;13.40;99.90;;;;;;5072150;28;20041;-72
2023/08/08 05:38:43;;;;;;;6.30;1.55;;;13.40;99.90;;;;;;5072524;28;20044;-71
2023/08/08 05:41:08;;;;;;;5.60;1.40;;;13.50;99.90;;;;;;5071186;28;20048;-72
2023/08/08 05:43:34;;;;;;;10.05;2.00;;;13.50;99.90;;;;;;5072317;28;20048;-68
2023/08/08 05:45:59;;;;;;;5.93;1.27;;;13.60;99.90;;;;;;5072084;28;20043;-71
2023/08/08 05:48:25;;;;;;;7.93;1.38;;;13.60;99.90;;;;;;5071964;28;20036;-73
2023/08/08 05:50:52;;;;;;;4.20;1.35;;;13.60;99.90;;;;;;5069765;28;20048;-74
2023/08/08 05:53:18;;;;;;;10.63;1.70;;;13.70;99.90;;;;;;5072187;28;20068;-72
2023/08/08 05:55:43;;;;;;;7.07;1.92;;;13.80;99.90;;;;;;5071661;28;20837;-74
2023/08/08 05:58:10;;;;;;;7.47;1.77;;;13.90;99.90;;;;;;5072415;28;20123;-71
2023/08/08 06:00:35;;;;;;;10.55;1.50;;;13.90;99.90;;;;;;5071848;28;20434;-69
2023/08/08 06:03:01;;;;;;;8.32;1.48;;;14.20;99.90;;;;;;5071283;28;20055;-73
2023/08/08 06:05:28;;;;;;;5.10;1.25;;;14.10;99.90;;;;;;5072153;28;20080;-73
2023/08/08 06:07:55;;;;;;;9.07;1.48;;;14.20;99.90;;;;;;5071533;28;20467;-73
2023/08/08 06:10:21;;;;;;;4.90;1.33;;;14.30;99.90;;;;;;5072037;28;20072;-73
2023/08/08 06:12:47;;;;;;;8.80;1.30;;;14.40;99.90;;;;;;5072308;28;20049;-73
2023/08/08 06:15:13;;;;;;;5.53;1.48;;;14.40;99.90;;;;;;5072226;28;20048;-74
2023/08/08 06:17:39;;;;;;;6.40;1.17;;;14.50;99.90;;;;;;5071709;28;20048;-74
2023/08/08 06:20:06;;;;;;;7.93;1.60;;;14.60;99.90;;;;;;5072499;28;20129;-74
2023/08/08 06:22:32;;;;;;;9.50;1.23;;;14.60;99.90;;;;;;5072204;28;20052;-74
2023/08/08 06:24:58;;;;;;;8.20;1.40;;;14.70;99.90;;;;;;5072075;28;20514;-75
2023/08/08 06:27:23;;;;;;;7.25;1.23;;;14.80;99.90;;;;;;5071705;28;20389;-72
2023/08/08 06:29:49;;;;;;;7.57;1.60;;;14.90;99.90;;;;;;5072212;28;20075;-72
2023/08/08 06:32:14;;;;;;;9.00;1.25;;;14.90;99.90;;;;;;5071485;28;20037;-75
2023/08/08 06:34:40;;;;;;;8.30;1.40;;;15.00;99.90;;;;;;5071335;28;20049;-75
2023/08/08 06:37:06;;;;;;;8.27;1.20;;;15.00;99.90;;;;;;5071885;28;20048;-72
2023/08/08 06:39:31;;;;;;;10.30;1.30;;;15.10;99.90;;;;;;5070799;28;20408;-70
2023/08/08 06:41:57;;;;;;;9.23;1.80;;;15.20;99.90;;;;;;5070565;28;20131;-75
2023/08/08 06:44:23;;;;;;;5.45;1.35;;;15.30;99.90;;;;;;5071423;28;20476;-73
2023/08/08 06:46:48;;;;;;;8.77;1.48;;;15.30;99.90;;;;;;5070802;28;20045;-70
2023/08/08 06:49:14;;;;;;;9.43;1.52;;;15.40;99.90;;;;;;5069476;28;20040;-75
2023/08/08 06:51:40;;;;;;;8.88;1.50;;;15.40;99.90;;;;;;5071620;28;20052;-74
2023/08/08 06:54:06;;;;;;;13.52;2.10;;;15.40;99.90;;;;;;5070034;28;20046;-72
2023/08/08 06:56:31;;;;;;;5.82;1.30;;;15.50;99.90;;;;;;5069937;28;20044;-75
2023/08/08 06:58:57;;;;;;;8.00;1.20;;;15.60;99.90;;;;;;5070927;28;20478;-70
2023/08/08 07:01:22;;;;;;;10.35;1.48;;;15.70;99.90;;;;;;5070491;28;20037;-73
2023/08/08 07:03:48;;;;;;;6.20;1.27;;;15.70;99.90;;;;;;5070958;28;20056;-72
2023/08/08 07:06:17;;;;;;;12.27;1.58;;;15.80;99.90;;;;;;5070423;28;20044;-73
2023/08/08 07:08:43;;;;;;;5.15;1.55;;;15.80;99.90;;;;;;5070633;28;20551;-74
2023/08/08 07:11:09;;;;;;;7.50;1.17;;;15.90;99.90;;;;;;5069271;28;20131;-74
2023/08/08 07:13:34;;;;;;;8.77;1.23;;;16.10;99.90;;;;;;5071398;28;20119;-72
2023/08/08 07:16:00;;;;;;;7.60;1.33;;;16.20;99.90;;;;;;5070210;28;20124;-73
2023/08/08 07:18:26;;;;;;;11.45;1.50;;;16.30;99.90;;;;;;5070918;28;20427;-73
2023/08/08 07:20:52;;;;;;;6.57;1.05;;;16.40;99.90;;;;;;5070373;28;20493;-74
2023/08/08 07:23:17;;;;;;;8.98;2.22;;;16.40;99.90;;;;;;5070612;28;20131;-72
2023/08/08 07:25:44;;;;;;;6.00;1.27;;;16.30;99.90;;;;;;5070301;28;20119;-74
2023/08/08 07:28:10;;;;;;;7.63;1.25;;;16.40;99.90;;;;;;5070274;28;20487;-69
2023/08/08 07:30:36;;;;;;;9.32;1.60;;;16.40;99.90;;;;;;5070447;28;20043;-73
2023/08/08 07:33:02;;;;;;;10.73;1.35;;;16.50;99.90;;;;;;5069251;28;20119;-69
2023/08/08 07:35:27;;;;;;;14.57;1.45;;;16.50;99.90;;;;;;5069764;28;20059;-72
2023/08/08 07:37:53;;;;;;;6.60;1.15;;;16.50;99.90;;;;;;5069448;28;20048;-70
2023/08/08 07:40:20;;;;;;;6.22;1.27;;;16.60;99.90;;;;;;5069186;28;20414;-69
2023/08/08 07:42:47;;;;;;;7.78;1.20;;;16.60;99.90;;;;;;5069839;28;20036;-69
2023/08/08 07:45:13;;;;;;;8.85;1.40;;;16.70;99.90;;;;;;5068379;28;20494;-73
2023/08/08 07:47:39;;;;;;;8.88;1.52;;;16.70;99.90;;;;;;5070163;28;20053;-74
2023/08/08 07:50:08;;;;;;;7.10;1.00;;;16.60;99.90;;;;;;5069023;28;20582;-75
2023/08/08 07:52:34;;;;;;;4.95;0.93;;;16.70;99.90;;;;;;5069998;28;20040;-72
2023/08/08 07:55:00;;;;;;;9.75;1.05;;;16.70;99.90;;;;;;5069895;28;20040;-68
2023/08/08 07:57:27;;;;;;;6.68;1.58;;;16.70;99.90;;;;;;5069980;28;20040;-70
2023/08/08 07:59:52;;;;;;;7.50;1.00;;;16.60;99.90;;;;;;5069945;28;20044;-73
2023/08/08 08:02:18;;;;;;;6.03;0.90;;;16.60;99.90;;;;;;5070152;28;20036;-72
2023/08/08 08:04:43;;;;;;;6.78;1.20;;;16.60;99.90;;;;;;5069740;28;20094;-74
2023/08/08 08:07:09;;;;;;;4.93;0.82;;;16.70;99.90;;;;;;5068317;28;20048;-76
2023/08/08 08:09:35;;;;;;;11.25;1.42;;;16.70;99.90;;;;;;5070208;28;20038;-74
2023/08/08 08:12:00;;;;;;;7.85;0.93;;;16.70;99.90;;;;;;5069531;28;20470;-70
2023/08/08 08:14:26;;;;;;;5.30;0.90;;;16.80;99.90;;;;;;5069844;28;20456;-74
2023/08/08 08:16:52;;;;;;;8.48;1.17;;;16.80;99.90;;;;;;5069613;28;20408;-69
2023/08/08 08:19:18;;;;;;;5.82;0.90;;;16.80;99.90;;;;;;5070062;28;20128;-71
2023/08/08 08:21:43;;;;;;;5.95;0.90;;;16.70;99.90;;;;;;5069516;28;20101;-73
2023/08/08 08:24:09;;;;;;;10.98;1.17;;;16.70;99.90;;;;;;5069481;28;20037;-70
2023/08/08 08:26:35;;;;;;;8.57;2.15;;;16.60;99.90;;;;;;5068743;28;20048;-71
2023/08/08 08:29:01;;;;;;;7.47;1.10;;;16.60;99.90;;;;;;5069750;28;20052;-70
2023/08/08 08:31:26;;;;;;;8.95;1.20;;;16.80;99.90;;;;;;5069640;28;20040;-69
2023/08/08 08:33:55;;;;;;;9.38;1.60;;;16.70;99.90;;;;;;5069556;28;20037;-72
2023/08/08 08:36:21;;;;;;;6.53;1.00;;;16.70;99.90;;;;;;5069505;28;20037;-72
2023/08/08 08:38:47;;;;;;;5.65;0.98;;;16.60;99.90;;;;;;5069541;28;20090;-68
2023/08/08 08:41:19;;;;;;;6.72;0.95;;;16.60;99.90;;;;;;5068247;28;20079;-69
2023/08/08 08:43:46;;;;;;;10.18;0.80;;;16.50;99.90;;;;;;5064420;28;20045;-68
2023/08/08 08:46:14;;;;;;;5.47;0.93;;;16.60;99.90;;;;;;5069436;28;20040;-69
2023/08/08 08:48:41;;;;;;;7.13;0.90;;;16.70;99.90;;;;;;5069558;28;20080;-69
2023/08/08 08:51:07;;;;;;;6.30;1.17;;;16.90;99.90;;;;;;5069448;28;20044;-70
2023/08/08 08:53:34;;;;;;;6.93;0.93;;;17.10;99.90;;;;;;5069732;28;20048;-68
2023/08/08 08:56:01;;;;;;;6.63;1.05;;;17.20;99.90;;;;;;5069191;28;20045;-69
2023/08/08 08:58:28;;;;;;;14.05;1.42;;;17.50;99.90;;;;;;5068629;28;20052;-70
2023/08/08 09:00:55;;;;;;;8.45;1.52;;;17.60;99.90;;;;;;5069239;28;20053;-74
2023/08/08 09:03:20;;;;;;;4.57;1.25;;;17.70;99.90;;;;;;5069324;28;20072;-73
2023/08/08 09:05:48;;;;;;;5.72;1.00;;;17.90;99.90;;;;;;5069064;28;20104;-69
2023/08/08 09:08:15;;;;;;;7.45;1.08;;;17.80;99.90;;;;;;5069401;28;20040;-73
2023/08/08 09:10:40;;;;;;;9.85;1.20;;;17.60;99.90;;;;;;5069688;28;20036;-70
2023/08/08 09:13:06;;;;;;;9.45;1.40;;;17.50;99.90;;;;;;5069032;28;20510;-69
2023/08/08 09:15:33;;;;;;;8.27;0.90;;;17.30;99.90;;;;;;5067905;28;20040;-71
2023/08/08 09:17:59;;;;;;;4.50;0.90;;;17.60;99.90;;;;;;5067348;28;20052;-69
2023/08/08 09:20:27;;;;;;;3.15;0.80;;;17.50;99.90;;;;;;5069309;28;20035;-70
2023/08/08 09:22:53;;;;;;;5.07;0.82;;;17.50;99.90;;;;;;5068868;28;20446;-71
2023/08/08 09:25:19;;;;;;;3.42;1.00;;;17.40;99.90;;;;;;5067436;28;20099;-70
2023/08/08 09:27:45;;;;;;;9.95;1.10;;;17.50;99.90;;;;;;5068856;28;20399;-74
2023/08/08 09:30:11;;;;;;;7.00;1.00;;;17.80;99.90;;;;;;5069053;28;20048;-72
2023/08/08 09:32:37;;;;;;;8.05;1.13;;;17.90;99.90;;;;;;5069210;28;20070;-72
2023/08/08 09:35:05;;;;;;;5.70;1.50;;;18.10;99.90;;;;;;5068996;28;20438;-70
2023/08/08 09:37:31;;;;;;;3.72;0.80;;;18.00;99.90;;;;;;5069590;28;20051;-71
2023/08/08 09:40:02;;;;;;;8.68;1.40;;;17.90;99.90;;;;;;5073028;28;20033;-74
2023/08/08 09:42:29;;;;;;;9.02;1.80;;;17.50;99.90;;;;;;5072470;28;20090;-74
2023/08/08 09:44:57;;;;;;;5.18;0.93;;;17.10;99.90;;;;;;5072127;28;20124;-69
2023/08/08 09:47:23;;;;;;;4.13;0.85;;;16.90;99.90;;;;;;5072361;28;20048;-74
2023/08/08 09:49:48;;;;;;;4.45;0.90;;;17.00;99.90;;;;;;5063968;28;20033;-72
2023/08/08 09:52:15;;;;;;;8.35;1.17;;;17.30;99.90;;;;;;5072585;28;20045;-74
2023/08/08 09:54:41;;;;;;;5.18;1.00;;;17.40;99.90;;;;;;5070771;28;20048;-73
2023/08/08 09:57:08;;;;;;;8.40;1.20;;;17.20;99.90;;;;;;5072356;28;20158;-74
2023/08/08 09:59:35;;;;;;;4.85;0.90;;;17.20;99.90;;;;;;5070554;28;20399;-74
2023/08/08 10:02:01;;;;;;;4.90;0.93;;;17.10;99.90;;;;;;5063907;28;20045;-74
2023/08/08 10:04:27;;;;;;;5.68;1.00;;;17.40;99.90;;;;;;5072122;28;20033;-71
2023/08/08 10:06:53;;;;;;;8.88;1.60;;;17.30;99.90;;;;;;5070378;28;20052;-75
2023/08/08 10:09:19;;;;;;;10.82;1.40;;;17.20;99.90;;;;;;5072070;28;20392;-74
2023/08/08 10:11:46;;;;;;;5.95;0.93;;;17.00;99.90;;;;;;5070986;28;20033;-74
2023/08/08 10:14:14;;;;;;;5.28;0.90;;;17.00;99.90;;;;;;5063074;28;20048;-74
2023/08/08 10:16:43;;;;;;;5.53;1.35;;;16.90;99.90;;;;;;5072091;28;20068;-74
2023/08/08 10:19:09;;;;;;;4.80;1.13;;;17.00;99.90;;;;;;5071806;28;20556;-73
2023/08/08 10:21:37;;;;;;;3.88;1.00;;;17.30;99.90;;;;;;5071709;28;20118;-74
2023/08/08 10:24:03;;;;;;;9.60;1.23;;;17.70;99.90;;;;;;5071557;28;20044;-73
2023/08/08 10:26:29;;;;;;;8.30;1.10;;;17.60;99.90;;;;;;5071947;28;20040;-71
2023/08/08 10:28:59;;;;;;;8.18;1.27;;;17.40;99.90;;;;;;5071870;28;20216;-71
2023/08/08 10:31:24;;;;;;;6.00;0.88;;;17.30;99.90;;;;;;5069946;28;20048;-71
2023/08/08 10:34:01;;;;;;;7.20;1.73;;;17.40;99.90;;;;;;5071663;28;20120;-75
2023/08/08 10:36:50;;;;;;;3.85;1.10;;;17.80;99.90;;;;;;5071321;28;20044;-72
2023/08/08 10:39:17;;;;;;;3.97;0.70;;;18.20;99.90;;;;;;5071329;28;20488;-74
2023/08/08 10:41:48;;;;;;;5.80;1.70;;;18.20;99.90;;;;;;5071722;28;20490;-70
2023/08/08 10:44:20;;;;;;;8.27;1.02;;;18.00;99.90;;;;;;5071515;28;20080;-70
2023/08/08 10:46:46;;;;;;;6.45;0.85;;;18.30;99.90;;;;;;5065902;28;20040;-71
2023/08/08 10:49:13;;;;;;;7.07;1.15;;;18.60;99.90;;;;;;5069350;28;20394;-68
2023/08/08 10:51:42;;;;;;;4.50;0.98;;;18.70;99.90;;;;;;5071120;28;20538;-68
2023/08/08 10:54:23;;;;;;;5.38;1.10;;;18.80;99.90;;;;;;5071500;28;20051;-69
2023/08/08 10:56:56;;;;;;;5.00;1.02;;;19.00;99.90;;;;;;5070711;28;20051;-69
2023/08/08 10:59:38;;;;;;;3.13;0.95;;;19.10;99.90;;;;;;5070618;28;20044;-72
2023/08/08 11:02:04;;;;;;;7.18;1.48;;;19.40;99.90;;;;;;5069070;28;20395;-72
2023/08/08 11:04:32;;;;;;;3.25;0.90;;;19.30;99.90;;;;;;5071255;28;20036;-74
2023/08/08 11:06:58;;;;;;;5.47;0.80;;;18.80;99.90;;;;;;5069579;28;20103;-73
2023/08/08 11:09:24;;;;;;;4.50;1.10;;;18.90;99.90;;;;;;5071148;28;20076;-72
2023/08/08 11:11:49;;;;;;;4.95;1.05;;;18.90;99.90;;;;;;5070709;28;20049;-72
2023/08/08 11:14:17;;;;;;;6.05;0.90;;;18.80;99.90;;;;;;5069711;28;20048;-73
2023/08/08 11:16:44;;;;;;;6.70;1.00;;;18.70;99.90;;;;;;5070339;28;20044;-69
2023/08/08 11:19:12;;;;;;;9.05;1.02;;;18.40;99.90;;;;;;5070263;28;20052;-72
2023/08/08 11:21:40;;;;;;;6.45;1.08;;;18.10;99.90;;;;;;5070729;28;20043;-74
2023/08/08 11:24:06;;;;;;;6.20;1.10;;;18.40;99.90;;;;;;5070560;28;20055;-72
2023/08/08 11:26:34;;;;;;;7.53;1.27;;;18.30;99.90;;;;;;5070375;28;20052;-69
2023/08/08 11:29:01;;;;;;;9.00;0.90;;;18.10;99.90;;;;;;5069187;28;20144;-69
2023/08/08 11:31:27;;;;;;;8.20;1.17;;;17.80;99.90;;;;;;5070088;28;20461;-74
2023/08/08 11:33:54;;;;;;;5.20;0.95;;;18.10;99.90;;;;;;5070017;28;20499;-70
2023/08/08 11:36:22;;;;;;;5.15;0.95;;;18.20;99.90;;;;;;5069024;28;20483;-71
2023/08/08 11:38:49;;;;;;;8.48;1.30;;;18.30;99.90;;;;;;5070376;28;20114;-70
2023/08/08 11:41:16;;;;;;;7.32;1.30;;;18.60;99.90;;;;;;5070088;28;20036;-73
2023/08/08 11:43:42;;;;;;;9.75;1.42;;;18.90;99.90;;;;;;5061896;28;20119;-71
2023/08/08 11:46:13;;;;;;;4.65;0.80;;;19.20;99.90;;;;;;5070356;28;20124;-74
2023/08/08 11:48:39;;;;;;;6.70;1.55;;;19.20;99.90;;;;;;5070068;28;20448;-71
2023/08/08 11:51:05;;;;;;;8.32;0.98;;;19.20;99.90;;;;;;5069995;28;20032;-74
2023/08/08 11:53:31;;;;;;;4.63;1.10;;;19.20;99.90;;;;;;5068676;28;20098;-73
2023/08/08 11:55:59;;;;;;;8.80;0.90;;;19.30;99.90;;;;;;5069544;28;20028;-71
2023/08/08 11:58:25;;;;;;;7.40;1.27;;;19.40;99.90;;;;;;5069942;28;20036;-72
2023/08/08 12:00:52;;;;;;;4.97;0.82;;;19.60;99.90;;;;;;5069224;28;20033;-70
2023/08/08 12:03:18;;;;;;;7.45;0.80;;;19.70;99.90;;;;;;5069731;28;20048;-73
2023/08/08 12:05:48;;;;;;;3.25;0.65;;;19.50;99.90;;;;;;5069886;28;20088;-70
2023/08/08 12:08:20;;;;;;;7.93;1.95;;;19.20;99.90;;;;;;5069867;28;20403;-73
2023/08/08 12:10:56;;;;;;;4.13;0.90;;;18.90;99.90;;;;;;5067972;28;20040;-74
2023/08/08 12:13:22;;;;;;;4.95;1.65;;;19.00;99.90;;;;;;5064737;28;20099;-73
2023/08/08 12:15:49;;;;;;;7.65;0.80;;;19.10;99.90;;;;;;5069508;28;20583;-71
2023/08/08 12:18:18;;;;;;;3.97;0.80;;;18.90;99.90;;;;;;5069496;28;20123;-77
2023/08/08 12:20:44;;;;;;;14.68;1.67;;;19.00;99.90;;;;;;5069608;28;20151;-73
2023/08/08 12:23:10;;;;;;;4.25;1.05;;;19.00;99.90;;;;;;5069615;28;20045;-75
2023/08/08 12:25:36;;;;;;;8.07;1.10;;;19.00;99.90;;;;;;5069531;28;20059;-71
2023/08/08 12:28:02;;;;;;;9.50;1.10;;;18.90;99.90;;;;;;5069566;28;20047;-73
2023/08/08 12:30:28;;;;;;;4.45;0.73;;;18.80;99.90;;;;;;5068982;28;20076;-72
2023/08/08 12:32:53;;;;;;;6.35;1.10;;;18.70;99.90;;;;;;5069247;28;20079;-69
2023/08/08 12:35:20;;;;;;;4.53;0.80;;;18.60;99.90;;;;;;5069726;28;20052;-70
2023/08/08 12:37:46;;;;;;;5.63;1.30;;;18.50;99.90;;;;;;5069403;28;20395;-71
2023/08/08 12:40:13;;;;;;;10.30;1.08;;;18.80;99.90;;;;;;5069671;28;20125;-69
2023/08/08 12:42:38;;;;;;;7.13;0.98;;;18.70;99.90;;;;;;5069699;28;20080;-72